メインページ
METAR-TAF:

METAR-TAF

空港 :

ワシントン州, バージニア州, アメリカ合衆国

ワシントン・ダレス国際空港

緯度: 38-56-05N, 経度: 077-26-51W, 海抜: 95m

現時点の気象観測

当レポートは17分前の11:52(UTC)に作成
の風 7kt
気温 2°C
湿度 64%
気圧 1031 hPa
視程: 16.1km
高度5500ftの千切れ雲あり
高度10000ftの千切れ雲あり
高度17000ftの千切れ雲あり

METAR: KIAD 241152Z 17007KT 10SM BKN055 BKN100 BKN170 02/M04 A3044 RMK AO2 SLP310 T00221039 10022 20006 55003

時間: 08:09 (12:09 UTC)

予報

当レポートは31分前の11:38(UTC)に作成
予報は24日の 12時(UTC)から 25日の 18時(UTC)まで有効
の風 10kt
視程: 10km
高度6000ftの千切れ雲あり
高度16000ftの千切れ雲あり
24日の 1300時(UTC)から
の風 10kt
視程: 10km
高度14000ftの曇り
24日の 1800時(UTC)から
の風 12kt、最大20ktの突風を伴う
視程: 10km
高度7000ftの千切れ雲あり
25日の 0000時(UTC)から
南/南西の風 8kt
視程: 10km
高度25000ftの千切れ雲あり
25日の 0700時(UTC)から
南/南西の風 4kt
視程: 10km
高度25000ftの千切れ雲あり

TAF: KIAD 241138Z 2412/2518 18010KT P6SM BKN060 BKN160 FM241300 19010KT P6SM OVC140 FM241800 19012G20KT P6SM BKN070 FM250000 20008KT P6SM BKN250 FM250700 21004KT P6SM BKN250

4,000以上の空港の気象観測と天気予報(METAR報とTAF報)

利用可能な観測所は地図上に黄色い丸と赤い丸で示す。

丸の上にカーソルを重ねると観測所名を参照できる。

次にクリックすると気象観測と天気予報を参照できる。

マップの切り替え:黒色「×」印の緑ボタンをクリックして拡大、「-」印の緑ボタンをクリックして縮小、緑色の三角印をクリックして隣りの地図に切り替え


METAR-TAF: